createdAt,value
2023-05-01T00:00:04.813Z,1006.87
2023-05-01T00:01:02.603Z,1006.91
2023-05-01T00:02:02.597Z,1006.88
2023-05-01T00:03:03.317Z,1006.89
2023-05-01T00:04:03.014Z,1006.85
2023-05-01T00:05:03.098Z,1006.85
2023-05-01T00:06:03.038Z,1006.85
2023-05-01T00:07:03.196Z,1006.85
2023-05-01T00:08:02.738Z,1006.85
2023-05-01T00:09:02.727Z,1006.83
2023-05-01T00:10:03.277Z,1006.81
2023-05-01T00:11:02.752Z,1006.80
2023-05-01T00:12:02.074Z,1006.83
2023-05-01T00:13:01.998Z,1006.76
2023-05-01T00:14:01.849Z,1006.77
2023-05-01T00:15:01.800Z,1006.75
2023-05-01T00:16:02.341Z,1006.78
2023-05-01T00:17:02.158Z,1006.76
2023-05-01T00:18:02.758Z,1006.74
2023-05-01T00:19:02.552Z,1006.69
2023-05-01T00:20:02.515Z,1006.70
2023-05-01T00:21:02.391Z,1006.68
2023-05-01T00:22:02.263Z,1006.73
2023-05-01T00:23:02.907Z,1006.71
2023-05-01T00:24:02.659Z,1006.66
2023-05-01T00:25:02.257Z,1006.65
2023-05-01T00:26:02.250Z,1006.73
2023-05-01T00:27:02.077Z,1006.63
2023-05-01T00:28:02.478Z,1006.62
2023-05-01T00:29:02.158Z,1006.69
2023-05-01T00:30:02.334Z,1006.68
2023-05-01T00:31:02.262Z,1006.64
2023-05-01T00:32:02.425Z,1006.61
2023-05-01T00:33:02.371Z,1006.67
2023-05-01T00:34:02.276Z,1006.65
2023-05-01T00:35:02.297Z,1006.64
2023-05-01T00:36:02.223Z,1006.60
2023-05-01T00:37:02.299Z,1006.58
2023-05-01T00:38:02.102Z,1006.65
2023-05-01T00:39:01.791Z,1006.65
2023-05-01T00:40:01.800Z,1006.57
2023-05-01T00:41:02.070Z,1006.57
2023-05-01T00:42:02.023Z,1006.62
2023-05-01T00:43:02.271Z,1006.60
2023-05-01T00:44:02.214Z,1006.57
2023-05-01T00:45:02.137Z,1006.52
2023-05-01T00:46:02.144Z,1006.57
2023-05-01T00:47:02.594Z,1006.51
2023-05-01T00:48:02.869Z,1006.49
2023-05-01T00:49:02.728Z,1006.59
2023-05-01T00:50:02.759Z,1006.55
2023-05-01T00:51:02.810Z,1006.56
2023-05-01T00:52:02.855Z,1006.58
2023-05-01T00:53:02.793Z,1006.53
2023-05-01T00:54:02.803Z,1006.51
2023-05-01T00:55:02.767Z,1006.57
2023-05-01T00:56:02.769Z,1006.50
2023-05-01T00:57:02.349Z,1006.50
2023-05-01T00:58:02.380Z,1006.48
2023-05-01T00:59:02.922Z,1006.41
2023-05-01T01:00:02.625Z,1006.43
2023-05-01T01:01:02.676Z,1006.38
2023-05-01T01:02:02.655Z,1006.43
2023-05-01T01:03:02.713Z,1006.40
2023-05-01T01:04:02.697Z,1006.42
2023-05-01T01:05:02.484Z,1006.36
2023-05-01T01:06:02.547Z,1006.33
2023-05-01T01:07:03.462Z,1006.35
2023-05-01T01:08:02.990Z,1006.32
2023-05-01T01:09:02.937Z,1006.36
2023-05-01T01:10:02.897Z,1006.36
2023-05-01T01:11:02.912Z,1006.32
2023-05-01T01:12:03.484Z,1006.35
2023-05-01T01:13:03.424Z,1006.29
2023-05-01T01:14:03.964Z,1006.28
2023-05-01T01:15:03.695Z,1006.23
2023-05-01T01:16:03.329Z,1006.26
2023-05-01T01:17:03.110Z,1006.32
2023-05-01T01:18:02.844Z,1006.25
2023-05-01T01:19:02.858Z,1006.28
2023-05-01T01:20:03.256Z,1006.24
2023-05-01T01:21:03.181Z,1006.23
2023-05-01T01:22:03.132Z,1006.22
2023-05-01T01:23:03.110Z,1006.20
2023-05-01T01:24:03.220Z,1006.22
2023-05-01T01:25:03.101Z,1006.26
2023-05-01T01:26:03.109Z,1006.22
2023-05-01T01:27:02.519Z,1006.20
2023-05-01T01:28:03.132Z,1006.21
2023-05-01T01:29:02.526Z,1006.19
2023-05-01T01:30:02.776Z,1006.15
2023-05-01T01:31:02.792Z,1006.17
2023-05-01T01:32:03.418Z,1006.18
2023-05-01T01:33:03.310Z,1006.15
2023-05-01T01:34:03.311Z,1006.16
2023-05-01T01:35:03.367Z,1006.18
2023-05-01T01:36:03.388Z,1006.15
2023-05-01T01:37:02.984Z,1006.12
2023-05-01T01:38:03.232Z,1006.17
2023-05-01T01:39:02.949Z,1006.11
2023-05-01T01:40:02.928Z,1006.15
2023-05-01T01:41:02.856Z,1006.15
2023-05-01T01:42:03.550Z,1006.12
2023-05-01T01:43:03.123Z,1006.11
2023-05-01T01:44:03.695Z,1006.13
2023-05-01T01:45:03.594Z,1006.08
2023-05-01T01:46:03.533Z,1006.11
2023-05-01T01:47:03.547Z,1006.09
2023-05-01T01:48:03.908Z,1006.00
2023-05-01T01:49:03.590Z,1006.05
2023-05-01T01:50:03.635Z,1006.09
2023-05-01T01:51:03.667Z,1006.04
2023-05-01T01:52:03.799Z,1006.01
2023-05-01T01:53:03.858Z,1005.96
2023-05-01T01:54:03.401Z,1005.96
2023-05-01T01:55:03.982Z,1005.93
2023-05-01T01:56:04.029Z,1005.90
2023-05-01T01:57:03.203Z,1005.94
2023-05-01T01:58:03.088Z,1005.91
2023-05-01T01:59:03.446Z,1005.88
2023-05-01T02:00:03.585Z,1005.85
2023-05-01T02:01:03.138Z,1005.82
2023-05-01T02:02:03.582Z,1005.88
2023-05-01T02:03:03.648Z,1005.83
2023-05-01T02:04:03.615Z,1005.79
2023-05-01T02:05:03.610Z,1005.83
2023-05-01T02:06:03.490Z,1005.82
2023-05-01T02:07:03.230Z,1005.79
2023-05-01T02:08:03.123Z,1005.83
2023-05-01T02:09:03.026Z,1005.74
2023-05-01T02:10:02.935Z,1005.73
2023-05-01T02:11:02.868Z,1005.77
2023-05-01T02:12:03.478Z,1005.72
2023-05-01T02:13:03.357Z,1005.74
2023-05-01T02:14:03.669Z,1005.69
2023-05-01T02:15:03.573Z,1005.70
2023-05-01T02:16:03.465Z,1005.73
2023-05-01T02:17:02.682Z,1005.69
2023-05-01T02:18:02.915Z,1005.67
2023-05-01T02:19:02.841Z,1005.70
2023-05-01T02:20:02.602Z,1005.66
2023-05-01T02:21:02.511Z,1005.65
2023-05-01T02:22:03.166Z,1005.64
2023-05-01T02:23:02.972Z,1005.59
2023-05-01T02:24:02.831Z,1005.61
2023-05-01T02:25:02.676Z,1005.56
2023-05-01T02:26:02.676Z,1005.60
2023-05-01T02:27:03.332Z,1005.60
2023-05-01T02:28:03.010Z,1005.61
2023-05-01T02:29:02.925Z,1005.61
2023-05-01T02:30:03.439Z,1005.61
2023-05-01T02:31:03.151Z,1005.55
2023-05-01T02:32:03.742Z,1005.57
2023-05-01T02:33:03.900Z,1005.56
2023-05-01T02:34:03.540Z,1005.51
2023-05-01T02:35:03.784Z,1005.52
2023-05-01T02:36:03.572Z,1005.53
2023-05-01T02:37:03.270Z,1005.52
2023-05-01T02:38:03.020Z,1005.46
2023-05-01T02:39:03.010Z,1005.53
2023-05-01T02:40:03.048Z,1005.48
2023-05-01T02:41:02.932Z,1005.46
2023-05-01T02:42:03.565Z,1005.47
2023-05-01T02:43:03.542Z,1005.43
2023-05-01T02:44:03.191Z,1005.44
2023-05-01T02:45:03.074Z,1005.42
2023-05-01T02:46:03.689Z,1005.48
2023-05-01T02:47:03.216Z,1005.42
2023-05-01T02:48:03.204Z,1005.37
2023-05-01T02:49:02.909Z,1005.37
2023-05-01T02:50:02.842Z,1005.39
2023-05-01T02:51:03.130Z,1005.39
2023-05-01T02:52:02.807Z,1005.28
2023-05-01T02:53:03.309Z,1005.33
2023-05-01T02:54:03.270Z,1005.37
2023-05-01T02:55:03.192Z,1005.35
2023-05-01T02:56:03.081Z,1005.32
2023-05-01T02:57:03.350Z,1005.27
2023-05-01T02:58:03.170Z,1005.29
2023-05-01T02:59:03.034Z,1005.32
2023-05-01T03:00:03.137Z,1005.27
2023-05-01T03:01:03.149Z,1005.26
2023-05-01T03:02:02.947Z,1005.28
2023-05-01T03:03:02.912Z,1005.33
2023-05-01T03:04:02.944Z,1005.27
2023-05-01T03:05:02.847Z,1005.24
2023-05-01T03:06:02.777Z,1005.22
2023-05-01T03:07:03.095Z,1005.22
2023-05-01T03:08:03.287Z,1005.22
2023-05-01T03:09:03.030Z,1005.21
2023-05-01T03:10:03.158Z,1005.21
2023-05-01T03:11:03.416Z,1005.18
2023-05-01T03:12:02.184Z,1005.19
2023-05-01T03:13:02.705Z,1005.15
2023-05-01T03:14:02.151Z,1005.18
2023-05-01T03:15:02.094Z,1005.16
2023-05-01T03:16:02.724Z,1005.12
2023-05-01T03:17:02.526Z,1005.12
2023-05-01T03:18:02.637Z,1005.10
2023-05-01T03:19:02.661Z,1005.12
2023-05-01T03:20:02.532Z,1005.10
2023-05-01T03:21:02.564Z,1005.10
2023-05-01T03:22:02.007Z,1005.12
2023-05-01T03:23:01.910Z,1005.15
2023-05-01T03:24:02.025Z,1005.09
2023-05-01T03:25:01.953Z,1005.08
2023-05-01T03:26:01.920Z,1005.08
2023-05-01T03:27:02.576Z,1005.01
2023-05-01T03:28:02.471Z,1004.99
2023-05-01T03:29:02.911Z,1005.00
2023-05-01T03:30:02.522Z,1004.98
2023-05-01T03:31:02.406Z,1005.01
2023-05-01T03:32:02.065Z,1005.01
2023-05-01T03:33:02.349Z,1004.92
2023-05-01T03:34:02.296Z,1004.91
2023-05-01T03:35:02.561Z,1004.97
2023-05-01T03:36:02.483Z,1004.90
2023-05-01T03:37:02.566Z,1004.92
2023-05-01T03:38:02.203Z,1004.93
2023-05-01T03:39:02.022Z,1004.90
2023-05-01T03:40:02.591Z,1004.94
2023-05-01T03:41:02.209Z,1004.87
2023-05-01T03:42:03.244Z,1004.93
2023-05-01T03:43:02.841Z,1004.87
2023-05-01T03:44:02.808Z,1004.91
2023-05-01T03:45:03.314Z,1004.95
2023-05-01T03:46:02.939Z,1004.94
2023-05-01T03:47:02.925Z,1004.92
2023-05-01T03:48:02.880Z,1004.90
2023-05-01T03:49:02.881Z,1004.84
2023-05-01T03:50:03.245Z,1004.84
2023-05-01T03:51:03.219Z,1004.84
2023-05-01T03:52:02.152Z,1004.84
2023-05-01T03:53:02.068Z,1004.83
2023-05-01T03:54:02.318Z,1004.89
2023-05-01T03:55:02.545Z,1004.87
2023-05-01T03:56:02.284Z,1004.89
2023-05-01T03:57:02.159Z,1004.88
2023-05-01T03:58:02.096Z,1004.85
2023-05-01T03:59:02.656Z,1004.84
2023-05-01T04:00:02.184Z,1004.86
2023-05-01T04:01:02.332Z,1004.83
2023-05-01T04:02:02.912Z,1004.83
2023-05-01T04:03:03.121Z,1004.81
2023-05-01T04:04:03.011Z,1004.87
2023-05-01T04:05:03.021Z,1004.80
2023-05-01T04:06:03.257Z,1004.81
2023-05-01T04:07:02.985Z,1004.83
2023-05-01T04:08:03.291Z,1004.83
2023-05-01T04:09:02.824Z,1004.81
2023-05-01T04:10:02.821Z,1004.78
2023-05-01T04:11:02.853Z,1004.83
2023-05-01T04:12:02.652Z,1004.75
2023-05-01T04:13:02.839Z,1004.76
2023-05-01T04:14:02.518Z,1004.79
2023-05-01T04:15:02.541Z,1004.76
2023-05-01T04:16:02.546Z,1004.76
2023-05-01T04:17:02.231Z,1004.78
2023-05-01T04:18:02.224Z,1004.75
2023-05-01T04:19:02.362Z,1004.73
2023-05-01T04:20:02.369Z,1004.76
2023-05-01T04:21:02.373Z,1004.73
2023-05-01T04:22:02.436Z,1004.75
2023-05-01T04:23:02.569Z,1004.76
2023-05-01T04:24:02.209Z,1004.73
2023-05-01T04:25:02.271Z,1004.68
2023-05-01T04:26:02.238Z,1004.70
2023-05-01T04:27:02.700Z,1004.68
2023-05-01T04:28:02.731Z,1004.67
2023-05-01T04:29:02.719Z,1004.73
2023-05-01T04:30:02.670Z,1004.73
2023-05-01T04:31:02.690Z,1004.68
2023-05-01T04:32:02.824Z,1004.76
2023-05-01T04:33:02.667Z,1004.73
2023-05-01T04:34:03.017Z,1004.73
2023-05-01T04:35:04.134Z,1004.75
2023-05-01T04:36:02.732Z,1004.72
2023-05-01T04:37:02.408Z,1004.76
2023-05-01T04:38:02.420Z,1004.73
2023-05-01T04:39:02.271Z,1004.69
2023-05-01T04:40:02.330Z,1004.66
2023-05-01T04:41:02.370Z,1004.73
2023-05-01T04:42:03.247Z,1004.73
2023-05-01T04:43:03.185Z,1004.72
2023-05-01T04:44:02.707Z,1004.72
2023-05-01T04:45:02.794Z,1004.65
2023-05-01T04:46:03.026Z,1004.69
2023-05-01T04:47:02.833Z,1004.68
2023-05-01T04:48:02.837Z,1004.69
2023-05-01T04:49:02.867Z,1004.71
2023-05-01T04:50:02.939Z,1004.73
2023-05-01T04:51:03.001Z,1004.69
2023-05-01T04:52:02.804Z,1004.69
2023-05-01T04:53:02.529Z,1004.72
2023-05-01T04:54:02.550Z,1004.73
2023-05-01T04:55:02.577Z,1004.68
2023-05-01T04:56:02.622Z,1004.72
2023-05-01T04:57:02.434Z,1004.75
2023-05-01T04:58:02.439Z,1004.67
2023-05-01T04:59:02.497Z,1004.65
2023-05-01T05:00:02.366Z,1004.67
2023-05-01T05:01:02.023Z,1004.63
2023-05-01T05:02:02.990Z,1004.68
2023-05-01T05:03:03.001Z,1004.64
2023-05-01T05:04:03.021Z,1004.66
2023-05-01T05:05:02.520Z,1004.63
2023-05-01T05:06:02.612Z,1004.65
2023-05-01T05:07:02.275Z,1004.64
2023-05-01T05:08:02.199Z,1004.67
2023-05-01T05:09:02.325Z,1004.66
2023-05-01T05:10:02.482Z,1004.68
2023-05-01T05:11:02.302Z,1004.67
2023-05-01T05:12:02.433Z,1004.68
2023-05-01T05:13:02.937Z,1004.67
2023-05-01T05:14:02.813Z,1004.66
2023-05-01T05:15:03.003Z,1004.64
2023-05-01T05:16:02.544Z,1004.65
2023-05-01T05:17:01.750Z,1004.59
2023-05-01T05:18:02.251Z,1004.61
2023-05-01T05:19:02.173Z,1004.60
2023-05-01T05:20:02.091Z,1004.65
2023-05-01T05:21:02.117Z,1004.67
2023-05-01T05:22:02.861Z,1004.66
2023-05-01T05:23:02.566Z,1004.66
2023-05-01T05:24:02.506Z,1004.72
2023-05-01T05:25:02.757Z,1004.67
2023-05-01T05:26:02.655Z,1004.64
2023-05-01T05:27:02.343Z,1004.67
2023-05-01T05:28:02.202Z,1004.63
2023-05-01T05:29:01.791Z,1004.62
2023-05-01T05:30:01.955Z,1004.62
2023-05-01T05:31:01.768Z,1004.62
2023-05-01T05:32:02.037Z,1004.65
2023-05-01T05:33:02.684Z,1004.60
2023-05-01T05:34:02.557Z,1004.62
2023-05-01T05:35:02.564Z,1004.63
2023-05-01T05:36:02.431Z,1004.63
2023-05-01T05:37:02.545Z,1004.64
2023-05-01T05:38:02.845Z,1004.65
2023-05-01T05:39:03.078Z,1004.65
2023-05-01T05:40:03.023Z,1004.58
2023-05-01T05:41:02.704Z,1004.59
2023-05-01T05:42:02.006Z,1004.58
2023-05-01T05:43:01.892Z,1004.60
2023-05-01T05:44:02.061Z,1004.60
2023-05-01T05:45:02.222Z,1004.60
2023-05-01T05:46:02.114Z,1004.56
2023-05-01T05:47:01.995Z,1004.52
2023-05-01T05:48:02.122Z,1004.59
2023-05-01T05:49:02.016Z,1004.50
2023-05-01T05:50:02.068Z,1004.56
2023-05-01T05:51:02.246Z,1004.50
2023-05-01T05:52:02.106Z,1004.52
2023-05-01T05:53:02.350Z,1004.54
2023-05-01T05:54:01.949Z,1004.49
2023-05-01T05:55:02.161Z,1004.47
2023-05-01T05:56:01.987Z,1004.56
2023-05-01T05:57:02.148Z,1004.57
2023-05-01T05:58:02.140Z,1004.57
2023-05-01T05:59:02.185Z,1004.54
2023-05-01T06:00:02.410Z,1004.59
2023-05-01T06:01:02.117Z,1004.56
2023-05-01T06:02:03.542Z,1004.47
2023-05-01T06:03:03.572Z,1004.47
2023-05-01T06:04:03.606Z,1004.50
2023-05-01T06:05:03.298Z,1004.51
2023-05-01T06:06:03.280Z,1004.50
2023-05-01T06:07:02.766Z,1004.55
2023-05-01T06:08:02.907Z,1004.47
2023-05-01T06:09:03.042Z,1004.48
2023-05-01T06:10:02.488Z,1004.52
2023-05-01T06:11:03.031Z,1004.51
2023-05-01T06:12:02.803Z,1004.51
2023-05-01T06:13:12.222Z,1004.45
2023-05-01T06:14:02.746Z,1004.47
2023-05-01T06:15:03.205Z,1004.48
2023-05-01T06:16:03.063Z,1004.46
2023-05-01T06:17:03.169Z,1004.47
2023-05-01T06:18:03.282Z,1004.49
2023-05-01T06:19:03.555Z,1004.46
2023-05-01T06:20:03.210Z,1004.42
2023-05-01T06:21:03.434Z,1004.45
2023-05-01T06:22:03.206Z,1004.40
2023-05-01T06:23:02.884Z,1004.44
2023-05-01T06:24:03.204Z,1004.46
2023-05-01T06:25:03.038Z,1004.43
2023-05-01T06:26:03.071Z,1004.44
2023-05-01T06:27:03.038Z,1004.45
2023-05-01T06:28:03.045Z,1004.45
2023-05-01T06:29:03.141Z,1004.42
2023-05-01T06:30:03.088Z,1004.41
2023-05-01T06:31:03.303Z,1004.39
2023-05-01T06:32:03.698Z,1004.37
2023-05-01T06:33:03.404Z,1004.46
2023-05-01T06:34:03.349Z,1004.44
2023-05-01T06:35:03.455Z,1004.46
2023-05-01T06:36:03.428Z,1004.45
2023-05-01T06:37:02.645Z,1004.44
2023-05-01T06:38:02.809Z,1004.43
2023-05-01T06:39:02.752Z,1004.42
2023-05-01T06:40:03.026Z,1004.41
2023-05-01T06:41:02.772Z,1004.45
2023-05-01T06:42:02.746Z,1004.41
2023-05-01T06:43:03.022Z,1004.38
2023-05-01T06:44:02.940Z,1004.36
2023-05-01T06:45:02.941Z,1004.37
2023-05-01T06:46:03.225Z,1004.37
2023-05-01T06:47:03.225Z,1004.38
2023-05-01T06:48:03.438Z,1004.37
2023-05-01T06:49:03.162Z,1004.35
2023-05-01T06:50:05.220Z,1004.34
2023-05-01T06:51:03.449Z,1004.36
2023-05-01T06:52:03.278Z,1004.29
2023-05-01T06:53:03.179Z,1004.33
2023-05-01T06:54:03.405Z,1004.33
2023-05-01T06:55:03.472Z,1004.33
2023-05-01T06:56:03.680Z,1004.37
2023-05-01T06:57:02.601Z,1004.34
2023-05-01T06:58:07.028Z,1004.37
2023-05-01T06:59:02.983Z,1004.34
2023-05-01T07:00:02.594Z,1004.37
2023-05-01T07:01:02.558Z,1004.39
2023-05-01T07:02:02.843Z,1004.40
2023-05-01T07:03:03.034Z,1004.46
2023-05-01T07:04:02.490Z,1004.42
2023-05-01T07:05:02.536Z,1004.41
2023-05-01T07:06:02.724Z,1004.44
2023-05-01T07:07:03.105Z,1004.39
2023-05-01T07:08:02.994Z,1004.37
2023-05-01T07:09:02.802Z,1004.40
2023-05-01T07:10:02.929Z,1004.37
2023-05-01T07:11:02.987Z,1004.32
2023-05-01T07:12:03.106Z,1004.40
2023-05-01T07:13:02.959Z,1004.35
2023-05-01T07:14:03.320Z,1004.30
2023-05-01T07:15:02.804Z,1004.32
2023-05-01T07:16:03.377Z,1004.34
2023-05-01T07:17:03.690Z,1004.32
2023-05-01T07:18:03.397Z,1004.30
2023-05-01T07:19:03.532Z,1004.29
2023-05-01T07:20:03.703Z,1004.29
2023-05-01T07:21:03.620Z,1004.31
2023-05-01T07:22:03.866Z,1004.32
2023-05-01T07:23:04.677Z,1004.29
2023-05-01T07:24:03.384Z,1004.34
2023-05-01T07:25:03.483Z,1004.34
2023-05-01T07:26:03.426Z,1004.27
2023-05-01T07:27:03.548Z,1004.30
2023-05-01T07:28:03.921Z,1004.27
2023-05-01T07:29:03.721Z,1004.27
2023-05-01T07:30:03.893Z,1004.27
2023-05-01T07:31:03.502Z,1004.32
2023-05-01T07:32:02.808Z,1004.22
2023-05-01T07:33:03.125Z,1004.25
2023-05-01T07:34:02.478Z,1004.19
2023-05-01T07:35:02.574Z,1004.21
2023-05-01T07:36:02.656Z,1004.25
2023-05-01T07:37:03.432Z,1004.21
2023-05-01T07:38:03.620Z,1004.23
2023-05-01T07:39:03.526Z,1004.21
2023-05-01T07:40:03.866Z,1004.21
2023-05-01T07:41:03.740Z,1004.14
2023-05-01T07:42:03.082Z,1004.18
2023-05-01T07:43:03.214Z,1004.21
2023-05-01T07:44:03.060Z,1004.18
2023-05-01T07:45:03.076Z,1004.17
2023-05-01T07:46:03.171Z,1004.15
2023-05-01T07:47:03.617Z,1004.20
2023-05-01T07:48:03.628Z,1004.18
2023-05-01T07:49:03.909Z,1004.18
2023-05-01T07:50:03.757Z,1004.15
2023-05-01T07:51:03.906Z,1004.14
2023-05-01T07:52:03.634Z,1004.14
2023-05-01T07:53:03.916Z,1004.18
2023-05-01T07:54:03.956Z,1004.20
2023-05-01T07:55:03.405Z,1004.13
2023-05-01T07:56:03.936Z,1004.15
2023-05-01T07:57:03.020Z,1004.12
2023-05-01T07:58:02.923Z,1004.12
2023-05-01T07:59:02.964Z,1004.11
2023-05-01T08:00:03.106Z,1004.15
2023-05-01T08:01:03.259Z,1004.13
2023-05-01T08:02:03.099Z,1004.16
2023-05-01T08:03:03.345Z,1004.15
2023-05-01T08:04:03.358Z,1004.18
2023-05-01T08:05:03.261Z,1004.16
2023-05-01T08:06:03.258Z,1004.14
2023-05-01T08:07:02.339Z,1004.11
2023-05-01T08:08:02.470Z,1004.10
2023-05-01T08:09:01.957Z,1004.14
2023-05-01T08:10:02.280Z,1004.16
2023-05-01T08:11:02.174Z,1004.15
2023-05-01T08:12:02.357Z,1004.11
2023-05-01T08:13:02.500Z,1004.10
2023-05-01T08:14:02.403Z,1004.10
2023-05-01T08:15:02.474Z,1004.14
2023-05-01T08:16:02.351Z,1004.11
2023-05-01T08:17:02.949Z,1004.18
2023-05-01T08:18:02.788Z,1004.06
2023-05-01T08:19:03.003Z,1004.11
2023-05-01T08:20:02.480Z,1004.12
2023-05-01T08:21:02.651Z,1004.05
2023-05-01T08:22:02.402Z,1004.04
2023-05-01T08:23:01.989Z,1004.01
2023-05-01T08:24:02.298Z,1004.07
2023-05-01T08:25:01.934Z,1004.02
2023-05-01T08:26:02.457Z,1004.01
2023-05-01T08:27:02.696Z,1003.99
2023-05-01T08:28:02.124Z,1003.98
2023-05-01T08:29:02.160Z,1004.04
2023-05-01T08:30:02.544Z,1004.02
2023-05-01T08:31:02.782Z,1004.03
2023-05-01T08:32:02.910Z,1004.01
2023-05-01T08:33:03.153Z,1004.02
2023-05-01T08:34:03.243Z,1004.06
2023-05-01T08:35:03.342Z,1004.03
2023-05-01T08:36:03.213Z,1004.03
2023-05-01T08:37:02.771Z,1004.08
2023-05-01T08:38:02.789Z,1004.02
2023-05-01T08:39:02.213Z,1004.04
2023-05-01T08:40:02.359Z,1004.04
2023-05-01T08:41:02.208Z,1004.02
2023-05-01T08:42:02.865Z,1004.07
2023-05-01T08:43:02.530Z,1004.05
2023-05-01T08:44:02.561Z,1004.05
2023-05-01T08:45:02.780Z,1004.05
2023-05-01T08:46:02.901Z,1004.03
2023-05-01T08:47:02.814Z,1004.06
2023-05-01T08:48:02.593Z,1004.04
2023-05-01T08:49:02.714Z,1004.03
2023-05-01T08:50:02.644Z,1004.00
2023-05-01T08:51:02.542Z,1004.05
2023-05-01T08:52:03.121Z,1004.00
2023-05-01T08:53:02.500Z,1004.02
2023-05-01T08:54:02.607Z,1004.01
2023-05-01T08:55:02.814Z,1003.98
2023-05-01T08:56:02.983Z,1004.00
2023-05-01T08:57:02.131Z,1003.97
2023-05-01T08:58:02.495Z,1003.97
2023-05-01T08:59:02.469Z,1004.01
2023-05-01T09:00:02.658Z,1003.96
2023-05-01T09:01:02.602Z,1003.99
2023-05-01T09:02:02.914Z,1003.99
2023-05-01T09:03:03.504Z,1003.98
2023-05-01T09:04:02.998Z,1003.95
2023-05-01T09:05:03.042Z,1004.00
2023-05-01T09:06:03.305Z,1003.94
2023-05-01T09:07:03.184Z,1003.98
2023-05-01T09:08:03.479Z,1003.97
2023-05-01T09:09:03.644Z,1003.90
2023-05-01T09:10:03.195Z,1003.90
2023-05-01T09:11:03.411Z,1003.95
2023-05-01T09:12:02.626Z,1003.88
2023-05-01T09:13:02.604Z,1003.91
2023-05-01T09:14:03.063Z,1003.88
2023-05-01T09:15:03.125Z,1003.89
2023-05-01T09:16:02.694Z,1003.85
2023-05-01T09:17:03.057Z,1003.89
2023-05-01T09:18:04.116Z,1003.88
2023-05-01T09:19:03.407Z,1003.86
2023-05-01T09:20:03.748Z,1003.84
2023-05-01T09:21:03.679Z,1003.82
2023-05-01T09:22:02.593Z,1003.84
2023-05-01T09:23:02.762Z,1003.75
2023-05-01T09:24:02.818Z,1003.71
2023-05-01T09:25:02.891Z,1003.74
2023-05-01T09:26:03.128Z,1003.76
2023-05-01T09:27:03.159Z,1003.68
2023-05-01T09:28:03.379Z,1003.71
2023-05-01T09:29:03.622Z,1003.70
2023-05-01T09:30:03.129Z,1003.73
2023-05-01T09:31:03.236Z,1003.75
2023-05-01T09:32:03.121Z,1003.76
2023-05-01T09:33:03.006Z,1003.74
2023-05-01T09:34:02.873Z,1003.67
2023-05-01T09:35:03.031Z,1003.72
2023-05-01T09:36:02.540Z,1003.70
2023-05-01T09:37:02.706Z,1003.66
2023-05-01T09:38:02.716Z,1003.70
2023-05-01T09:39:02.930Z,1003.71
2023-05-01T09:40:03.106Z,1003.69
2023-05-01T09:41:03.052Z,1003.71
2023-05-01T09:42:03.055Z,1003.61
2023-05-01T09:43:03.181Z,1003.63
2023-05-01T09:44:03.326Z,1003.68
2023-05-01T09:45:03.481Z,1003.68
2023-05-01T09:46:02.963Z,1003.63
2023-05-01T09:47:03.625Z,1003.69
2023-05-01T09:48:03.963Z,1003.66
2023-05-01T09:49:03.713Z,1003.67
2023-05-01T09:50:03.829Z,1003.62
2023-05-01T09:51:03.983Z,1003.58
2023-05-01T09:52:03.329Z,1003.56
2023-05-01T09:53:03.546Z,1003.62
2023-05-01T09:54:03.556Z,1003.56
2023-05-01T09:55:03.659Z,1003.61
2023-05-01T09:56:03.537Z,1003.61
2023-05-01T09:57:03.714Z,1003.56
2023-05-01T09:58:03.914Z,1003.51
2023-05-01T09:59:03.994Z,1003.49
2023-05-01T10:00:04.174Z,1003.48
2023-05-01T10:01:04.126Z,1003.46
2023-05-01T10:02:02.987Z,1003.46
2023-05-01T10:03:03.071Z,1003.46
2023-05-01T10:04:03.323Z,1003.44
2023-05-01T10:05:03.288Z,1003.43
2023-05-01T10:06:03.246Z,1003.45
2023-05-01T10:07:03.267Z,1003.42
2023-05-01T10:08:02.934Z,1003.47
2023-05-01T10:09:03.262Z,1003.43
2023-05-01T10:10:03.508Z,1003.40
2023-05-01T10:11:03.526Z,1003.43
2023-05-01T10:12:02.366Z,1003.41
2023-05-01T10:13:02.501Z,1003.45
2023-05-01T10:14:02.544Z,1003.39
2023-05-01T10:15:13.656Z,1003.40
2023-05-01T10:16:02.800Z,1003.41
2023-05-01T10:17:02.448Z,1003.41
2023-05-01T10:18:02.315Z,1003.41
2023-05-01T10:19:04.417Z,1003.43
2023-05-01T10:20:02.711Z,1003.41
2023-05-01T10:21:02.586Z,1003.41
2023-05-01T10:22:02.624Z,1003.43
2023-05-01T10:23:02.802Z,1003.39
2023-05-01T10:24:02.990Z,1003.40
2023-05-01T10:25:02.839Z,1003.37
2023-05-01T10:26:03.614Z,1003.37
2023-05-01T10:27:02.720Z,1003.37
2023-05-01T10:28:02.870Z,1003.38
2023-05-01T10:29:03.059Z,1003.41
2023-05-01T10:30:02.480Z,1003.38
2023-05-01T10:31:02.656Z,1003.41
2023-05-01T10:32:03.038Z,1003.39
2023-05-01T10:33:03.094Z,1003.39
2023-05-01T10:34:02.909Z,1003.31
2023-05-01T10:35:03.031Z,1003.27
2023-05-01T10:36:03.160Z,1003.28
2023-05-01T10:37:03.107Z,1003.31
2023-05-01T10:38:03.288Z,1003.29
2023-05-01T10:39:03.456Z,1003.33
2023-05-01T10:40:03.441Z,1003.26
2023-05-01T10:41:03.263Z,1003.28
2023-05-01T10:42:03.166Z,1003.22
2023-05-01T10:43:03.367Z,1003.21
2023-05-01T10:44:03.055Z,1003.20
2023-05-01T10:45:03.446Z,1003.26
2023-05-01T10:46:03.424Z,1003.22
2023-05-01T10:47:02.590Z,1003.21
2023-05-01T10:48:02.710Z,1003.21
2023-05-01T10:49:02.512Z,1003.25
2023-05-01T10:50:02.726Z,1003.25
2023-05-01T10:51:02.213Z,1003.25
2023-05-01T10:52:02.797Z,1003.21
2023-05-01T10:53:02.561Z,1003.18
2023-05-01T10:54:02.573Z,1003.11
2023-05-01T10:55:02.889Z,1003.14
2023-05-01T10:56:03.061Z,1003.11
2023-05-01T10:57:02.918Z,1003.10
2023-05-01T10:58:03.149Z,1003.10
2023-05-01T10:59:03.128Z,1003.03
2023-05-01T11:00:02.944Z,1003.03
2023-05-01T11:01:02.734Z,1003.03
2023-05-01T11:02:02.695Z,1003.07
2023-05-01T11:03:02.336Z,1003.09
2023-05-01T11:04:02.660Z,1003.08
2023-05-01T11:05:02.804Z,1003.02
2023-05-01T11:06:02.921Z,1003.10
2023-05-01T11:07:03.086Z,1003.03
2023-05-01T11:08:03.214Z,1003.10
2023-05-01T11:09:03.230Z,1003.08
2023-05-01T11:10:03.223Z,1003.11
2023-05-01T11:11:03.248Z,1003.13
2023-05-01T11:12:02.332Z,1003.10
2023-05-01T11:13:02.149Z,1003.08
2023-05-01T11:14:02.397Z,1003.06
2023-05-01T11:15:01.853Z,1003.06
2023-05-01T11:16:01.979Z,1002.98
2023-05-01T11:17:02.849Z,1003.03
2023-05-01T11:18:02.623Z,1003.01
2023-05-01T11:19:02.492Z,1003.00
2023-05-01T11:20:02.976Z,1003.02
2023-05-01T11:21:02.500Z,1003.00
2023-05-01T11:22:03.234Z,1003.01
2023-05-01T11:23:03.310Z,1002.98
2023-05-01T11:24:02.857Z,1002.98
2023-05-01T11:25:02.781Z,1002.98
2023-05-01T11:26:02.929Z,1002.99
2023-05-01T11:27:02.845Z,1002.99
2023-05-01T11:28:03.071Z,1002.96
2023-05-01T11:29:02.322Z,1002.95
2023-05-01T11:30:02.877Z,1002.92
2023-05-01T11:31:02.790Z,1002.95
2023-05-01T11:32:02.565Z,1002.93
2023-05-01T11:33:02.784Z,1002.94
2023-05-01T11:34:02.543Z,1003.01
2023-05-01T11:35:02.762Z,1002.94
2023-05-01T11:36:02.805Z,1002.93
2023-05-01T11:37:03.019Z,1002.94
2023-05-01T11:38:02.714Z,1002.92
2023-05-01T11:39:02.885Z,1002.92
2023-05-01T11:40:02.832Z,1002.92
2023-05-01T11:41:03.104Z,1002.93
2023-05-01T11:42:03.321Z,1002.93
2023-05-01T11:43:03.305Z,1002.91
2023-05-01T11:44:03.297Z,1002.98
2023-05-01T11:45:03.149Z,1002.95
2023-05-01T11:46:03.606Z,1002.98
2023-05-01T11:47:02.881Z,1002.93
2023-05-01T11:48:04.623Z,1002.92
2023-05-01T11:49:02.718Z,1002.98
2023-05-01T11:50:02.807Z,1002.87
2023-05-01T11:51:02.679Z,1002.95
2023-05-01T11:52:02.598Z,1002.90
2023-05-01T11:53:02.265Z,1002.92
2023-05-01T11:54:02.626Z,1002.84
2023-05-01T11:55:02.681Z,1002.91
2023-05-01T11:56:02.257Z,1002.89
2023-05-01T11:57:02.717Z,1002.87
2023-05-01T11:58:02.302Z,1002.89
2023-05-01T11:59:02.628Z,1002.87
2023-05-01T12:00:02.216Z,1002.85
2023-05-01T12:01:02.157Z,1002.85
2023-05-01T12:02:03.111Z,1002.90
2023-05-01T12:03:03.151Z,1002.86
2023-05-01T12:04:02.898Z,1002.88
2023-05-01T12:05:03.025Z,1002.89